sensor_id;sensor_type;location;lat;lon;timestamp;pressure;altitude;pressure_sealevel;temperature;humidity
41866;BME280;27539;43.222;27.558;2022-07-21T00:00:53;100424.81;;;20.25;100.00
41866;BME280;27539;43.222;27.558;2022-07-21T00:03:18;100420.94;;;20.21;100.00
41866;BME280;27539;43.222;27.558;2022-07-21T00:05:44;100414.88;;;20.28;100.00
41866;BME280;27539;43.222;27.558;2022-07-21T00:08:09;100384.16;;;19.99;100.00
41866;BME280;27539;43.222;27.558;2022-07-21T00:10:35;100418.84;;;20.27;100.00
41866;BME280;27539;43.222;27.558;2022-07-21T00:13:00;100411.72;;;20.29;100.00
41866;BME280;27539;43.222;27.558;2022-07-21T00:15:27;100423.09;;;20.38;100.00
41866;BME280;27539;43.222;27.558;2022-07-21T00:17:53;100403.38;;;20.24;100.00
41866;BME280;27539;43.222;27.558;2022-07-21T00:20:20;100409.75;;;20.30;100.00
41866;BME280;27539;43.222;27.558;2022-07-21T00:22:46;100406.50;;;20.23;100.00
41866;BME280;27539;43.222;27.558;2022-07-21T00:25:13;100406.31;;;20.19;100.00
41866;BME280;27539;43.222;27.558;2022-07-21T00:27:39;100407.56;;;20.13;100.00
41866;BME280;27539;43.222;27.558;2022-07-21T00:30:06;100402.34;;;19.93;100.00
41866;BME280;27539;43.222;27.558;2022-07-21T00:32:32;100404.44;;;19.73;100.00
41866;BME280;27539;43.222;27.558;2022-07-21T00:34:58;100402.47;;;19.41;100.00
41866;BME280;27539;43.222;27.558;2022-07-21T00:37:24;100399.09;;;19.25;100.00
41866;BME280;27539;43.222;27.558;2022-07-21T00:39:50;100363.88;;;19.23;100.00
41866;BME280;27539;43.222;27.558;2022-07-21T00:42:23;100385.13;;;19.48;100.00
41866;BME280;27539;43.222;27.558;2022-07-21T00:44:49;100385.03;;;19.53;100.00
41866;BME280;27539;43.222;27.558;2022-07-21T00:47:18;100392.78;;;19.61;100.00
41866;BME280;27539;43.222;27.558;2022-07-21T00:49:43;100389.31;;;19.50;100.00
41866;BME280;27539;43.222;27.558;2022-07-21T00:52:10;100397.50;;;19.52;100.00
41866;BME280;27539;43.222;27.558;2022-07-21T00:54:35;100381.88;;;19.40;100.00
41866;BME280;27539;43.222;27.558;2022-07-21T00:57:02;100376.44;;;19.30;100.00
41866;BME280;27539;43.222;27.558;2022-07-21T00:59:29;100393.81;;;19.37;100.00
41866;BME280;27539;43.222;27.558;2022-07-21T01:01:54;100388.34;;;19.27;100.00
41866;BME280;27539;43.222;27.558;2022-07-21T01:04:20;100376.53;;;19.25;100.00
41866;BME280;27539;43.222;27.558;2022-07-21T01:06:45;100377.16;;;19.22;100.00
41866;BME280;27539;43.222;27.558;2022-07-21T01:09:11;100378.34;;;19.02;100.00
41866;BME280;27539;43.222;27.558;2022-07-21T01:11:37;100376.63;;;18.68;100.00
41866;BME280;27539;43.222;27.558;2022-07-21T01:14:02;100375.88;;;18.63;100.00
41866;BME280;27539;43.222;27.558;2022-07-21T01:16:28;100380.22;;;18.55;100.00
41866;BME280;27539;43.222;27.558;2022-07-21T01:18:53;100388.59;;;18.60;100.00
41866;BME280;27539;43.222;27.558;2022-07-21T01:23:54;100390.50;;;18.46;100.00
41866;BME280;27539;43.222;27.558;2022-07-21T01:26:19;100380.63;;;18.48;100.00
41866;BME280;27539;43.222;27.558;2022-07-21T01:28:45;100365.69;;;18.29;100.00
41866;BME280;27539;43.222;27.558;2022-07-21T01:31:11;100379.16;;;18.51;100.00
41866;BME280;27539;43.222;27.558;2022-07-21T01:33:36;100368.72;;;18.51;100.00
41866;BME280;27539;43.222;27.558;2022-07-21T01:36:02;100343.38;;;18.32;100.00
41866;BME280;27539;43.222;27.558;2022-07-21T01:38:27;100361.19;;;18.28;100.00
41866;BME280;27539;43.222;27.558;2022-07-21T01:41:11;100371.41;;;18.24;100.00
41866;BME280;27539;43.222;27.558;2022-07-21T01:44:06;100371.47;;;18.19;100.00
41866;BME280;27539;43.222;27.558;2022-07-21T01:46:35;100369.41;;;18.24;100.00
41866;BME280;27539;43.222;27.558;2022-07-21T01:49:02;100352.22;;;18.26;100.00
41866;BME280;27539;43.222;27.558;2022-07-21T01:51:28;100358.50;;;18.18;100.00
41866;BME280;27539;43.222;27.558;2022-07-21T01:53:54;100360.06;;;18.29;100.00
41866;BME280;27539;43.222;27.558;2022-07-21T01:56:21;100362.88;;;18.29;100.00
41866;BME280;27539;43.222;27.558;2022-07-21T01:58:48;100349.31;;;18.12;100.00
41866;BME280;27539;43.222;27.558;2022-07-21T02:01:17;100358.59;;;18.12;100.00
41866;BME280;27539;43.222;27.558;2022-07-21T02:03:44;100327.75;;;18.02;100.00
41866;BME280;27539;43.222;27.558;2022-07-21T02:06:10;100319.34;;;17.78;100.00
41866;BME280;27539;43.222;27.558;2022-07-21T02:08:36;100345.94;;;17.91;100.00
41866;BME280;27539;43.222;27.558;2022-07-21T02:11:02;100354.47;;;18.05;100.00
41866;BME280;27539;43.222;27.558;2022-07-21T02:13:27;100346.13;;;18.19;100.00
41866;BME280;27539;43.222;27.558;2022-07-21T02:15:53;100369.16;;;18.21;100.00
41866;BME280;27539;43.222;27.558;2022-07-21T02:18:19;100350.97;;;18.13;100.00
41866;BME280;27539;43.222;27.558;2022-07-21T02:20:46;100348.22;;;18.08;100.00
41866;BME280;27539;43.222;27.558;2022-07-21T02:23:16;100347.31;;;18.12;100.00
41866;BME280;27539;43.222;27.558;2022-07-21T02:25:42;100345.13;;;18.09;100.00
41866;BME280;27539;43.222;27.558;2022-07-21T02:28:08;100351.91;;;18.08;100.00
41866;BME280;27539;43.222;27.558;2022-07-21T02:30:33;100350.22;;;17.88;100.00
41866;BME280;27539;43.222;27.558;2022-07-21T02:32:59;100354.47;;;17.86;100.00
41866;BME280;27539;43.222;27.558;2022-07-21T02:35:25;100344.56;;;17.64;100.00
41866;BME280;27539;43.222;27.558;2022-07-21T02:37:50;100356.47;;;17.56;100.00
41866;BME280;27539;43.222;27.558;2022-07-21T02:40:16;100351.78;;;17.70;100.00
41866;BME280;27539;43.222;27.558;2022-07-21T02:42:41;100349.28;;;17.69;100.00
41866;BME280;27539;43.222;27.558;2022-07-21T02:45:08;100336.47;;;17.58;100.00
41866;BME280;27539;43.222;27.558;2022-07-21T02:50:15;100332.66;;;17.48;100.00
41866;BME280;27539;43.222;27.558;2022-07-21T02:52:41;100336.72;;;17.37;100.00
41866;BME280;27539;43.222;27.558;2022-07-21T02:55:07;100342.81;;;17.44;100.00
41866;BME280;27539;43.222;27.558;2022-07-21T02:57:33;100322.16;;;17.30;100.00
41866;BME280;27539;43.222;27.558;2022-07-21T02:59:58;100334.22;;;17.36;100.00
41866;BME280;27539;43.222;27.558;2022-07-21T03:02:24;100305.53;;;17.10;100.00
41866;BME280;27539;43.222;27.558;2022-07-21T03:04:49;100327.72;;;17.35;100.00
41866;BME280;27539;43.222;27.558;2022-07-21T03:07:15;100325.94;;;17.44;100.00
41866;BME280;27539;43.222;27.558;2022-07-21T03:09:40;100333.66;;;17.58;100.00
41866;BME280;27539;43.222;27.558;2022-07-21T03:12:06;100334.50;;;17.58;100.00
41866;BME280;27539;43.222;27.558;2022-07-21T03:14:32;100340.44;;;17.57;100.00
41866;BME280;27539;43.222;27.558;2022-07-21T03:16:58;100330.53;;;17.35;100.00
41866;BME280;27539;43.222;27.558;2022-07-21T03:19:23;100370.16;;;17.63;100.00
41866;BME280;27539;43.222;27.558;2022-07-21T03:21:49;100367.13;;;17.59;100.00
41866;BME280;27539;43.222;27.558;2022-07-21T03:24:14;100360.34;;;17.36;100.00
41866;BME280;27539;43.222;27.558;2022-07-21T03:26:40;100349.00;;;17.46;100.00
41866;BME280;27539;43.222;27.558;2022-07-21T03:29:05;100364.59;;;17.58;100.00
41866;BME280;27539;43.222;27.558;2022-07-21T03:31:31;100337.56;;;17.62;100.00
41866;BME280;27539;43.222;27.558;2022-07-21T03:33:56;100347.31;;;17.69;100.00
41866;BME280;27539;43.222;27.558;2022-07-21T03:36:22;100343.13;;;17.67;100.00
41866;BME280;27539;43.222;27.558;2022-07-21T03:38:48;100339.22;;;17.63;100.00
41866;BME280;27539;43.222;27.558;2022-07-21T03:41:15;100344.06;;;17.57;100.00
41866;BME280;27539;43.222;27.558;2022-07-21T03:43:40;100337.31;;;17.58;100.00
41866;BME280;27539;43.222;27.558;2022-07-21T03:46:06;100340.66;;;17.60;100.00
41866;BME280;27539;43.222;27.558;2022-07-21T03:48:31;100327.44;;;17.61;100.00
41866;BME280;27539;43.222;27.558;2022-07-21T03:50:57;100346.47;;;17.69;100.00
41866;BME280;27539;43.222;27.558;2022-07-21T03:53:23;100345.31;;;17.70;100.00
41866;BME280;27539;43.222;27.558;2022-07-21T03:55:48;100333.91;;;17.61;100.00
41866;BME280;27539;43.222;27.558;2022-07-21T03:58:14;100326.59;;;17.60;100.00
41866;BME280;27539;43.222;27.558;2022-07-21T04:00:44;100346.63;;;17.78;100.00
41866;BME280;27539;43.222;27.558;2022-07-21T04:03:10;100348.47;;;18.11;100.00
41866;BME280;27539;43.222;27.558;2022-07-21T04:05:37;100317.97;;;18.19;100.00
41866;BME280;27539;43.222;27.558;2022-07-21T04:08:03;100355.19;;;18.53;100.00
41866;BME280;27539;43.222;27.558;2022-07-21T04:10:31;100349.50;;;18.72;100.00
41866;BME280;27539;43.222;27.558;2022-07-21T04:12:59;100347.00;;;18.90;100.00
41866;BME280;27539;43.222;27.558;2022-07-21T04:15:25;100347.13;;;18.98;100.00
41866;BME280;27539;43.222;27.558;2022-07-21T04:17:50;100351.88;;;19.31;100.00
41866;BME280;27539;43.222;27.558;2022-07-21T04:20:16;100333.72;;;19.51;100.00
41866;BME280;27539;43.222;27.558;2022-07-21T04:22:43;100335.56;;;19.74;100.00
41866;BME280;27539;43.222;27.558;2022-07-21T04:25:10;100351.28;;;20.03;100.00
41866;BME280;27539;43.222;27.558;2022-07-21T04:27:36;100338.31;;;20.16;100.00
41866;BME280;27539;43.222;27.558;2022-07-21T04:30:04;100344.22;;;20.42;100.00
41866;BME280;27539;43.222;27.558;2022-07-21T04:32:30;100329.22;;;20.55;100.00
41866;BME280;27539;43.222;27.558;2022-07-21T04:34:56;100339.22;;;20.84;100.00
41866;BME280;27539;43.222;27.558;2022-07-21T04:37:21;100340.13;;;21.15;100.00
41866;BME280;27539;43.222;27.558;2022-07-21T04:39:47;100328.50;;;21.48;100.00
41866;BME280;27539;43.222;27.558;2022-07-21T04:42:13;100345.13;;;21.90;100.00
41866;BME280;27539;43.222;27.558;2022-07-21T04:44:39;100332.06;;;22.20;100.00
41866;BME280;27539;43.222;27.558;2022-07-21T04:47:04;100322.09;;;22.57;97.08
41866;BME280;27539;43.222;27.558;2022-07-21T04:49:30;100340.38;;;22.95;96.45
41866;BME280;27539;43.222;27.558;2022-07-21T04:51:55;100336.84;;;23.24;93.25
41866;BME280;27539;43.222;27.558;2022-07-21T04:54:21;100339.63;;;23.50;90.91
41866;BME280;27539;43.222;27.558;2022-07-21T04:56:46;100348.91;;;23.59;92.04
41866;BME280;27539;43.222;27.558;2022-07-21T04:59:12;100348.66;;;23.82;88.81
41866;BME280;27539;43.222;27.558;2022-07-21T05:01:38;100351.41;;;23.99;89.18
41866;BME280;27539;43.222;27.558;2022-07-21T05:04:05;100359.22;;;24.11;88.71
41866;BME280;27539;43.222;27.558;2022-07-21T05:06:31;100344.72;;;24.25;88.04
41866;BME280;27539;43.222;27.558;2022-07-21T05:08:56;100345.19;;;24.35;86.90
41866;BME280;27539;43.222;27.558;2022-07-21T05:11:22;100343.59;;;24.47;87.94
41866;BME280;27539;43.222;27.558;2022-07-21T05:13:47;100347.72;;;24.58;85.97
41866;BME280;27539;43.222;27.558;2022-07-21T05:16:13;100345.88;;;24.74;85.03
41866;BME280;27539;43.222;27.558;2022-07-21T05:18:38;100344.50;;;24.81;85.63
41866;BME280;27539;43.222;27.558;2022-07-21T05:21:04;100346.69;;;24.96;86.58
41866;BME280;27539;43.222;27.558;2022-07-21T05:23:29;100354.38;;;25.16;84.91
41866;BME280;27539;43.222;27.558;2022-07-21T05:25:55;100355.00;;;25.22;84.43
41866;BME280;27539;43.222;27.558;2022-07-21T05:28:20;100361.75;;;25.30;84.49
41866;BME280;27539;43.222;27.558;2022-07-21T05:30:46;100367.38;;;25.38;82.81
41866;BME280;27539;43.222;27.558;2022-07-21T05:33:11;100357.91;;;25.47;83.44
41866;BME280;27539;43.222;27.558;2022-07-21T05:35:37;100363.84;;;25.54;83.26
41866;BME280;27539;43.222;27.558;2022-07-21T05:38:02;100373.34;;;25.70;83.88
41866;BME280;27539;43.222;27.558;2022-07-21T05:40:28;100367.56;;;25.79;80.19
41866;BME280;27539;43.222;27.558;2022-07-21T05:42:54;100372.19;;;25.83;83.56
41866;BME280;27539;43.222;27.558;2022-07-21T05:45:19;100364.28;;;26.01;81.86
41866;BME280;27539;43.222;27.558;2022-07-21T05:47:45;100348.34;;;26.00;82.47
41866;BME280;27539;43.222;27.558;2022-07-21T05:50:10;100359.84;;;26.28;80.51
41866;BME280;27539;43.222;27.558;2022-07-21T05:52:36;100347.34;;;26.33;75.91
41866;BME280;27539;43.222;27.558;2022-07-21T05:55:02;100381.47;;;26.54;74.06
41866;BME280;27539;43.222;27.558;2022-07-21T05:57:28;100373.69;;;26.67;73.88
41866;BME280;27539;43.222;27.558;2022-07-21T05:59:53;100376.03;;;26.77;72.83
41866;BME280;27539;43.222;27.558;2022-07-21T06:02:19;100355.34;;;26.80;72.28
41866;BME280;27539;43.222;27.558;2022-07-21T06:04:44;100374.53;;;26.96;73.17
41866;BME280;27539;43.222;27.558;2022-07-21T06:07:10;100376.22;;;26.97;71.72
41866;BME280;27539;43.222;27.558;2022-07-21T06:09:35;100336.22;;;26.68;68.69
41866;BME280;27539;43.222;27.558;2022-07-21T06:12:01;100374.66;;;26.99;67.55
41866;BME280;27539;43.222;27.558;2022-07-21T06:14:27;100378.25;;;27.24;69.70
41866;BME280;27539;43.222;27.558;2022-07-21T06:16:52;100371.50;;;27.17;65.38
41866;BME280;27539;43.222;27.558;2022-07-21T06:19:18;100371.63;;;27.36;68.55
41866;BME280;27539;43.222;27.558;2022-07-21T06:21:44;100361.22;;;27.28;67.34
41866;BME280;27539;43.222;27.558;2022-07-21T06:24:10;100385.50;;;27.50;66.48
41866;BME280;27539;43.222;27.558;2022-07-21T06:26:36;100373.97;;;27.46;65.19
41866;BME280;27539;43.222;27.558;2022-07-21T06:29:01;100365.22;;;27.39;66.69
41866;BME280;27539;43.222;27.558;2022-07-21T06:31:27;100358.38;;;27.44;64.34
41866;BME280;27539;43.222;27.558;2022-07-21T06:33:52;100388.03;;;27.83;67.22
41866;BME280;27539;43.222;27.558;2022-07-21T06:36:18;100394.38;;;27.76;66.24
41866;BME280;27539;43.222;27.558;2022-07-21T06:38:43;100393.28;;;27.97;65.26
41866;BME280;27539;43.222;27.558;2022-07-21T06:41:10;100379.97;;;28.20;65.32
41866;BME280;27539;43.222;27.558;2022-07-21T06:43:36;100382.50;;;28.41;64.35
41866;BME280;27539;43.222;27.558;2022-07-21T06:46:01;100389.13;;;28.61;63.65
41866;BME280;27539;43.222;27.558;2022-07-21T06:48:27;100389.22;;;28.65;64.06
41866;BME280;27539;43.222;27.558;2022-07-21T06:50:54;100378.16;;;28.83;58.97
41866;BME280;27539;43.222;27.558;2022-07-21T06:53:20;100373.19;;;28.99;61.07
41866;BME280;27539;43.222;27.558;2022-07-21T06:55:46;100390.94;;;28.89;57.99
41866;BME280;27539;43.222;27.558;2022-07-21T06:58:16;100381.78;;;28.99;60.96
41866;BME280;27539;43.222;27.558;2022-07-21T07:00:45;100359.03;;;28.87;59.75
41866;BME280;27539;43.222;27.558;2022-07-21T07:03:12;100361.97;;;28.91;58.21
41866;BME280;27539;43.222;27.558;2022-07-21T07:05:38;100381.38;;;29.01;58.68
41866;BME280;27539;43.222;27.558;2022-07-21T07:08:04;100379.69;;;29.16;60.53
41866;BME280;27539;43.222;27.558;2022-07-21T07:10:30;100370.41;;;29.22;60.55
41866;BME280;27539;43.222;27.558;2022-07-21T07:12:55;100373.03;;;29.12;59.67
41866;BME280;27539;43.222;27.558;2022-07-21T07:15:22;100370.16;;;29.31;58.19
41866;BME280;27539;43.222;27.558;2022-07-21T07:17:49;100371.94;;;29.39;58.82
41866;BME280;27539;43.222;27.558;2022-07-21T07:20:14;100387.56;;;29.42;60.71
41866;BME280;27539;43.222;27.558;2022-07-21T07:22:43;100376.00;;;29.58;61.14
41866;BME280;27539;43.222;27.558;2022-07-21T07:25:09;100356.63;;;29.51;54.79
41866;BME280;27539;43.222;27.558;2022-07-21T07:27:34;100369.81;;;29.56;53.55
41866;BME280;27539;43.222;27.558;2022-07-21T07:30:00;100362.94;;;29.60;57.23
41866;BME280;27539;43.222;27.558;2022-07-21T07:32:26;100371.59;;;29.64;54.75
41866;BME280;27539;43.222;27.558;2022-07-21T07:34:51;100371.13;;;29.81;55.69
41866;BME280;27539;43.222;27.558;2022-07-21T07:37:17;100370.06;;;30.16;56.11
41866;BME280;27539;43.222;27.558;2022-07-21T07:39:42;100351.56;;;30.13;55.92
41866;BME280;27539;43.222;27.558;2022-07-21T07:42:08;100356.53;;;30.17;51.83
41866;BME280;27539;43.222;27.558;2022-07-21T07:44:33;100358.16;;;29.91;50.86
41866;BME280;27539;43.222;27.558;2022-07-21T07:46:59;100380.34;;;29.94;51.64
41866;BME280;27539;43.222;27.558;2022-07-21T07:49:30;100376.72;;;29.97;51.11
41866;BME280;27539;43.222;27.558;2022-07-21T07:51:56;100382.81;;;30.19;54.04
41866;BME280;27539;43.222;27.558;2022-07-21T07:54:22;100376.50;;;30.09;51.53
41866;BME280;27539;43.222;27.558;2022-07-21T07:56:47;100346.13;;;30.05;52.16
41866;BME280;27539;43.222;27.558;2022-07-21T07:59:13;100372.09;;;30.42;52.27
41866;BME280;27539;43.222;27.558;2022-07-21T08:01:38;100377.34;;;30.63;52.01
41866;BME280;27539;43.222;27.558;2022-07-21T08:04:04;100342.84;;;30.60;53.20
41866;BME280;27539;43.222;27.558;2022-07-21T08:06:29;100350.38;;;30.71;50.22
41866;BME280;27539;43.222;27.558;2022-07-21T08:08:55;100365.22;;;30.77;48.91
41866;BME280;27539;43.222;27.558;2022-07-21T08:11:20;100379.06;;;30.98;52.86
41866;BME280;27539;43.222;27.558;2022-07-21T08:13:46;100367.28;;;31.07;52.02
41866;BME280;27539;43.222;27.558;2022-07-21T08:16:12;100381.63;;;31.07;49.59
41866;BME280;27539;43.222;27.558;2022-07-21T08:18:41;100350.88;;;30.77;49.27
41866;BME280;27539;43.222;27.558;2022-07-21T08:21:06;100375.31;;;30.94;48.88
41866;BME280;27539;43.222;27.558;2022-07-21T08:23:31;100367.06;;;31.23;51.01
41866;BME280;27539;43.222;27.558;2022-07-21T08:25:57;100374.47;;;31.27;47.76
41866;BME280;27539;43.222;27.558;2022-07-21T08:28:23;100371.69;;;31.34;48.99
41866;BME280;27539;43.222;27.558;2022-07-21T08:30:48;100378.06;;;31.17;46.80
41866;BME280;27539;43.222;27.558;2022-07-21T08:33:14;100373.28;;;30.94;46.82
41866;BME280;27539;43.222;27.558;2022-07-21T08:35:40;100377.16;;;31.09;49.23
41866;BME280;27539;43.222;27.558;2022-07-21T08:38:07;100373.28;;;31.28;47.43
41866;BME280;27539;43.222;27.558;2022-07-21T08:40:39;100345.56;;;30.79;48.09
41866;BME280;27539;43.222;27.558;2022-07-21T08:43:05;100372.34;;;30.87;46.79
41866;BME280;27539;43.222;27.558;2022-07-21T08:45:34;100380.72;;;30.99;47.61
41866;BME280;27539;43.222;27.558;2022-07-21T08:48:00;100365.75;;;30.83;47.00
41866;BME280;27539;43.222;27.558;2022-07-21T08:50:28;100376.94;;;31.25;48.90
41866;BME280;27539;43.222;27.558;2022-07-21T08:52:54;100358.94;;;31.32;46.40
41866;BME280;27539;43.222;27.558;2022-07-21T08:55:19;100378.19;;;31.65;46.04
41866;BME280;27539;43.222;27.558;2022-07-21T08:57:45;100381.75;;;31.51;45.57
41866;BME280;27539;43.222;27.558;2022-07-21T09:00:11;100377.66;;;31.52;46.72
41866;BME280;27539;43.222;27.558;2022-07-21T09:02:38;100383.28;;;31.82;46.00
41866;BME280;27539;43.222;27.558;2022-07-21T09:05:06;100377.50;;;31.75;44.65
41866;BME280;27539;43.222;27.558;2022-07-21T09:07:53;100393.44;;;31.69;45.65
41866;BME280;27539;43.222;27.558;2022-07-21T09:10:26;100354.66;;;31.52;45.21
41866;BME280;27539;43.222;27.558;2022-07-21T09:12:54;100369.00;;;31.45;45.68
41866;BME280;27539;43.222;27.558;2022-07-21T09:15:21;100369.03;;;31.52;45.74
41866;BME280;27539;43.222;27.558;2022-07-21T09:20:34;100370.06;;;31.74;45.11
41866;BME280;27539;43.222;27.558;2022-07-21T09:23:15;100370.13;;;31.78;45.87
41866;BME280;27539;43.222;27.558;2022-07-21T09:25:46;100372.44;;;32.06;45.17
41866;BME280;27539;43.222;27.558;2022-07-21T09:28:26;100365.44;;;32.03;43.50
41866;BME280;27539;43.222;27.558;2022-07-21T09:30:59;100343.88;;;31.86;44.45
41866;BME280;27539;43.222;27.558;2022-07-21T09:33:26;100366.38;;;31.74;44.52
41866;BME280;27539;43.222;27.558;2022-07-21T09:38:26;100335.53;;;31.71;44.20
41866;BME280;27539;43.222;27.558;2022-07-21T09:40:51;100364.56;;;31.99;43.83
41866;BME280;27539;43.222;27.558;2022-07-21T09:43:31;100345.47;;;32.28;45.82
41866;BME280;27539;43.222;27.558;2022-07-21T09:45:59;100345.66;;;32.54;43.93
41866;BME280;27539;43.222;27.558;2022-07-21T09:48:38;100351.41;;;32.57;44.29
41866;BME280;27539;43.222;27.558;2022-07-21T09:51:36;100359.44;;;32.23;42.22
41866;BME280;27539;43.222;27.558;2022-07-21T09:54:12;100350.03;;;32.33;43.61
41866;BME280;27539;43.222;27.558;2022-07-21T09:56:41;100359.13;;;32.42;42.22
41866;BME280;27539;43.222;27.558;2022-07-21T09:59:08;100315.94;;;32.42;43.99
41866;BME280;27539;43.222;27.558;2022-07-21T10:01:35;100357.78;;;32.95;43.79
41866;BME280;27539;43.222;27.558;2022-07-21T10:04:04;100346.34;;;33.09;42.52
41866;BME280;27539;43.222;27.558;2022-07-21T10:06:37;100349.09;;;32.88;40.68
41866;BME280;27539;43.222;27.558;2022-07-21T10:09:04;100352.28;;;32.61;41.93
41866;BME280;27539;43.222;27.558;2022-07-21T10:11:30;100339.81;;;32.46;41.96
41866;BME280;27539;43.222;27.558;2022-07-21T10:13:56;100343.38;;;32.22;42.12
41866;BME280;27539;43.222;27.558;2022-07-21T10:16:22;100353.47;;;32.57;43.65
41866;BME280;27539;43.222;27.558;2022-07-21T10:19:02;100348.03;;;32.41;40.84
41866;BME280;27539;43.222;27.558;2022-07-21T10:21:38;100351.31;;;32.43;42.06
41866;BME280;27539;43.222;27.558;2022-07-21T10:24:05;100354.59;;;32.45;42.50
41866;BME280;27539;43.222;27.558;2022-07-21T10:26:31;100353.25;;;32.24;42.18
41866;BME280;27539;43.222;27.558;2022-07-21T10:28:56;100348.03;;;32.41;42.32
41866;BME280;27539;43.222;27.558;2022-07-21T10:31:24;100334.66;;;32.74;43.07
41866;BME280;27539;43.222;27.558;2022-07-21T10:34:02;100346.22;;;32.81;42.89
41866;BME280;27539;43.222;27.558;2022-07-21T10:41:38;100311.66;;;32.91;41.12
41866;BME280;27539;43.222;27.558;2022-07-21T10:50:14;100298.69;;;32.46;39.87
41866;BME280;27539;43.222;27.558;2022-07-21T10:55:24;100321.28;;;33.21;40.64
41866;BME280;27539;43.222;27.558;2022-07-21T11:00:44;100329.47;;;33.11;41.02
41866;BME280;27539;43.222;27.558;2022-07-21T11:06:18;100325.06;;;33.68;40.41
41866;BME280;27539;43.222;27.558;2022-07-21T11:11:26;100314.34;;;33.72;38.99
41866;BME280;27539;43.222;27.558;2022-07-21T11:14:08;100296.63;;;34.09;38.52
41866;BME280;27539;43.222;27.558;2022-07-21T11:19:26;100319.09;;;34.86;38.35
41866;BME280;27539;43.222;27.558;2022-07-21T11:21:51;100298.66;;;34.05;38.91
41866;BME280;27539;43.222;27.558;2022-07-21T11:24:21;100319.25;;;34.39;38.54
41866;BME280;27539;43.222;27.558;2022-07-21T11:26:56;100314.75;;;33.67;40.37
41866;BME280;27539;43.222;27.558;2022-07-21T11:29:22;100323.34;;;33.45;39.38
41866;BME280;27539;43.222;27.558;2022-07-21T11:31:49;100331.16;;;33.30;39.86
41866;BME280;27539;43.222;27.558;2022-07-21T11:34:15;100327.91;;;33.53;38.82
41866;BME280;27539;43.222;27.558;2022-07-21T11:36:41;100311.84;;;33.95;40.30
41866;BME280;27539;43.222;27.558;2022-07-21T11:39:12;100323.00;;;34.08;41.02
41866;BME280;27539;43.222;27.558;2022-07-21T11:41:39;100335.38;;;33.94;40.00
41866;BME280;27539;43.222;27.558;2022-07-21T11:44:06;100325.03;;;34.00;37.97
41866;BME280;27539;43.222;27.558;2022-07-21T11:49:15;100341.00;;;33.15;41.17
41866;BME280;27539;43.222;27.558;2022-07-21T11:51:58;100321.69;;;33.41;39.68
41866;BME280;27539;43.222;27.558;2022-07-21T11:54:29;100343.19;;;33.72;40.43
41866;BME280;27539;43.222;27.558;2022-07-21T11:56:56;100336.59;;;33.68;42.25
41866;BME280;27539;43.222;27.558;2022-07-21T11:59:23;100332.00;;;33.31;48.82
41866;BME280;27539;43.222;27.558;2022-07-21T12:01:56;100340.19;;;33.11;56.13
41866;BME280;27539;43.222;27.558;2022-07-21T12:04:29;100347.50;;;32.94;57.27
41866;BME280;27539;43.222;27.558;2022-07-21T12:06:55;100355.97;;;32.58;59.71
41866;BME280;27539;43.222;27.558;2022-07-21T12:09:21;100352.53;;;32.42;60.13
41866;BME280;27539;43.222;27.558;2022-07-21T12:11:47;100329.28;;;32.10;61.18
41866;BME280;27539;43.222;27.558;2022-07-21T12:17:37;100369.16;;;32.66;61.86
41866;BME280;27539;43.222;27.558;2022-07-21T12:20:04;100347.34;;;32.65;60.57
41866;BME280;27539;43.222;27.558;2022-07-21T12:22:37;100369.53;;;32.58;64.74
41866;BME280;27539;43.222;27.558;2022-07-21T12:25:04;100341.88;;;32.46;62.99
41866;BME280;27539;43.222;27.558;2022-07-21T12:27:34;100360.44;;;32.48;62.27
41866;BME280;27539;43.222;27.558;2022-07-21T12:30:00;100378.72;;;32.85;60.34
41866;BME280;27539;43.222;27.558;2022-07-21T12:32:48;100380.22;;;32.54;60.89
41866;BME280;27539;43.222;27.558;2022-07-21T12:35:24;100370.41;;;32.69;60.85
41866;BME280;27539;43.222;27.558;2022-07-21T12:38:16;100382.03;;;32.87;59.71
41866;BME280;27539;43.222;27.558;2022-07-21T12:40:46;100360.31;;;32.38;62.02
41866;BME280;27539;43.222;27.558;2022-07-21T12:43:17;100348.97;;;32.00;62.16
41866;BME280;27539;43.222;27.558;2022-07-21T12:45:48;100370.84;;;32.12;61.08
41866;BME280;27539;43.222;27.558;2022-07-21T12:48:17;100370.75;;;31.98;63.35
41866;BME280;27539;43.222;27.558;2022-07-21T12:51:00;100371.56;;;32.02;63.59
41866;BME280;27539;43.222;27.558;2022-07-21T12:53:28;100368.53;;;31.43;64.07
41866;BME280;27539;43.222;27.558;2022-07-21T12:55:54;100373.66;;;31.27;68.73
41866;BME280;27539;43.222;27.558;2022-07-21T12:58:21;100369.06;;;31.18;69.62
41866;BME280;27539;43.222;27.558;2022-07-21T13:00:46;100357.16;;;31.54;69.88
41866;BME280;27539;43.222;27.558;2022-07-21T13:03:12;100370.91;;;31.75;67.29
41866;BME280;27539;43.222;27.558;2022-07-21T13:05:37;100377.38;;;31.64;66.49
41866;BME280;27539;43.222;27.558;2022-07-21T13:08:03;100362.50;;;31.18;68.68
41866;BME280;27539;43.222;27.558;2022-07-21T13:10:29;100367.91;;;31.27;71.65
41866;BME280;27539;43.222;27.558;2022-07-21T13:12:54;100346.00;;;31.15;70.49
41866;BME280;27539;43.222;27.558;2022-07-21T13:15:20;100371.38;;;31.06;71.55
41866;BME280;27539;43.222;27.558;2022-07-21T13:17:46;100369.63;;;30.97;71.83